Time;durP1;ratioP1;P1;durP2;ratioP2;P2;SDS_P1;SDS_P2;PMS_P1;PMS_P2;Temp;Humidity;BMP_temperature;BMP_pressure;BME280_temperature;BME280_humidity;BME280_pressure;Samples;Min_cycle;Max_cycle;Signal;HPM_P1;HPM_P2
2024/02/21 00:01:27;;;;;;;21.95;8.10;;;;;;;13.05;59.45;102183.88;4842632;28;113368;-90
2024/02/21 00:03:55;;;;;;;21.42;8.10;;;;;;;13.04;59.33;102183.91;4824503;28;113961;-90
2024/02/21 00:06:22;;;;;;;20.52;8.57;;;;;;;13.04;59.50;102179.44;4817488;28;123398;-89
2024/02/21 00:08:50;;;;;;;18.67;7.53;;;;;;;13.05;59.45;102175.88;4825992;28;123268;-89
2024/02/21 00:11:18;;;;;;;20.35;7.90;;;;;;;13.05;59.47;102170.56;4823780;29;115659;-88
2024/02/21 00:13:48;;;;;;;21.27;7.90;;;;;;;13.05;59.45;102167.91;4834548;28;113473;-87
2024/02/21 00:16:16;;;;;;;20.48;8.07;;;;;;;13.05;59.52;102170.56;4833944;28;124764;-88
2024/02/21 00:18:44;;;;;;;16.98;7.57;;;;;;;13.05;59.47;102170.56;4825944;28;123638;-90
2024/02/21 00:21:17;;;;;;;17.50;7.38;;;;;;;13.04;59.44;102168.81;4834037;28;113624;-90
2024/02/21 00:23:50;;;;;;;20.20;7.38;;;;;;;13.05;59.58;102170.56;4826534;28;113504;-88
2024/02/21 00:26:18;;;;;;;21.35;8.18;;;;;;;13.04;59.36;102163.50;4826734;28;124451;-90
2024/02/21 00:28:45;;;;;;;21.23;7.75;;;;;;;13.04;59.43;102168.81;4824782;28;124245;-90
2024/02/21 00:31:13;;;;;;;17.13;7.75;;;;;;;13.04;59.50;102163.50;4837562;28;116769;-90
2024/02/21 00:33:41;;;;;;;16.50;7.80;;;;;;;13.04;59.44;102158.19;4841395;28;114249;-88
2024/02/21 00:36:08;;;;;;;19.25;7.28;;;;;;;13.04;59.59;102142.22;4827066;28;123246;-90
2024/02/21 00:38:37;;;;;;;16.02;7.13;;;;;;;13.05;59.58;102143.06;4828655;28;96058;-89
2024/02/21 00:41:05;;;;;;;18.77;7.40;;;;;;;13.04;59.61;102131.56;4824863;28;113975;-89
2024/02/21 00:43:33;;;;;;;17.42;7.68;;;;;;;13.03;59.61;102132.53;4833540;28;114417;-89
2024/02/21 00:46:00;;;;;;;16.58;7.28;;;;;;;13.02;59.66;102128.09;4837082;28;122684;-90
2024/02/21 00:48:28;;;;;;;17.25;7.88;;;;;;;13.01;59.55;102115.72;4841379;28;123339;-89
2024/02/21 00:50:56;;;;;;;19.38;7.63;;;;;;;13.01;59.64;102121.03;4822830;28;113319;-89
2024/02/21 00:53:23;;;;;;;17.00;7.80;;;;;;;13.01;59.58;102110.41;4821758;29;114108;-90
2024/02/21 00:55:51;;;;;;;20.15;7.68;;;;;;;13.01;59.43;102109.53;4837968;28;125092;-91
2024/02/21 00:58:19;;;;;;;17.90;7.50;;;;;;;13.00;59.53;102103.34;4825282;28;123305;-91
2024/02/21 01:00:46;;;;;;;19.40;7.53;;;;;;;13.00;59.44;102103.34;4826082;28;113812;-92
2024/02/21 01:03:14;;;;;;;20.67;7.60;;;;;;;13.00;59.58;102100.69;4841167;28;113383;-89
2024/02/21 01:05:42;;;;;;;16.75;7.55;;;;;;;13.01;59.59;102093.56;4822783;29;123945;-90
2024/02/21 01:08:09;;;;;;;16.92;6.97;;;;;;;13.00;59.55;102090.06;4819570;28;123559;-90
2024/02/21 01:10:37;;;;;;;19.73;7.38;;;;;;;12.98;59.36;102088.38;4829246;28;113193;-89
2024/02/21 01:13:05;;;;;;;16.20;7.18;;;;;;;12.96;59.61;102100.84;4820974;29;113654;-89
2024/02/21 01:15:33;;;;;;;21.55;7.63;;;;;;;12.94;59.46;102102.69;4828361;28;124228;-89
2024/02/21 01:18:01;;;;;;;21.33;7.78;;;;;;;12.94;59.60;102102.69;4830388;28;123389;-90
2024/02/21 01:20:29;;;;;;;18.77;7.57;;;;;;;12.91;59.45;102106.34;4836212;28;115596;-89
2024/02/21 01:22:56;;;;;;;15.32;7.57;;;;;;;12.90;59.52;102107.25;4823611;28;114540;-91
2024/02/21 01:25:24;;;;;;;20.42;7.30;;;;;;;12.87;59.53;102102.06;4846705;28;124649;-89
2024/02/21 01:27:51;;;;;;;17.65;7.25;;;;;;;12.85;59.48;102098.56;4829699;28;122917;-90
2024/02/21 01:30:19;;;;;;;16.48;7.18;;;;;;;12.84;59.51;102091.50;4834621;28;113874;-90
2024/02/21 01:32:46;;;;;;;19.02;7.15;;;;;;;12.84;59.35;102102.16;4834297;28;115796;-91
2024/02/21 01:35:14;;;;;;;16.98;7.45;;;;;;;12.80;59.44;102079.25;4826869;28;123881;-89
2024/02/21 01:37:42;;;;;;;19.15;7.65;;;;;;;12.79;59.55;102077.50;4840046;28;124255;-88
2024/02/21 01:40:10;;;;;;;16.42;7.00;;;;;;;12.78;59.61;102076.63;4830012;28;113656;-91
2024/02/21 01:42:39;;;;;;;17.52;7.18;;;;;;;12.77;59.59;102068.72;4816710;28;115250;-90
2024/02/21 01:45:08;;;;;;;15.75;6.68;;;;;;;12.75;59.53;102059.91;4829090;28;123983;-90
2024/02/21 01:47:37;;;;;;;19.10;7.18;;;;;;;12.74;59.58;102058.19;4845067;28;123572;-88
2024/02/21 01:50:05;;;;;;;15.13;6.72;;;;;;;12.72;59.71;102049.41;4829826;28;113832;-89
2024/02/21 01:52:35;;;;;;;17.42;7.00;;;;;;;12.71;59.51;102047.66;4847596;28;113694;-91
2024/02/21 01:55:04;;;;;;;19.13;6.80;;;;;;;12.70;59.57;102036.16;4829223;28;126610;-89
2024/02/21 01:57:32;;;;;;;15.65;6.93;;;;;;;12.70;59.55;102027.34;4815348;28;123340;-89
2024/02/21 02:00:01;;;;;;;15.07;7.03;;;;;;;12.69;59.57;102028.25;4829379;28;113786;-90
2024/02/21 02:02:38;;;;;;;16.33;6.72;;;;;;;12.68;59.54;102024.72;4854738;28;115020;-89
2024/02/21 02:05:08;;;;;;;17.25;6.95;;;;;;;12.66;59.66;102019.47;4836951;28;123599;-90
2024/02/21 02:07:36;;;;;;;14.68;6.55;;;;;;;12.64;59.55;102015.97;4859833;28;123708;-89
2024/02/21 02:10:06;;;;;;;13.73;6.35;;;;;;;12.63;59.60;102024.88;4838817;28;114905;-90
2024/02/21 02:12:33;;;;;;;16.17;6.30;;;;;;;12.64;59.72;102031.06;4862338;28;114109;-89
2024/02/21 02:15:06;;;;;;;18.23;6.65;;;;;;;12.64;59.73;102026.63;4850540;28;124997;-90
2024/02/21 02:17:35;;;;;;;16.10;5.85;;;;;;;12.63;59.72;102035.50;4828888;28;123498;-89
2024/02/21 02:20:04;;;;;;;18.25;6.05;;;;;;;12.62;59.79;102033.78;4828423;28;113921;-90
2024/02/21 02:22:35;;;;;;;14.80;5.70;;;;;;;12.65;59.75;102032.78;4844830;28;113845;-89
2024/02/21 02:25:04;;;;;;;14.02;5.68;;;;;;;12.65;59.69;102033.66;4830435;28;123783;-90
2024/02/21 02:27:32;;;;;;;13.70;4.82;;;;;;;12.66;59.67;102031.88;4829878;28;123565;-90
2024/02/21 02:30:01;;;;;;;13.45;5.60;;;;;;;12.65;59.71;102028.34;4828287;28;114741;-89
2024/02/21 02:32:29;;;;;;;12.30;5.53;;;;;;;12.66;59.58;102023.91;4841958;28;113587;-89
2024/02/21 02:34:57;;;;;;;13.73;5.43;;;;;;;12.69;59.76;102017.59;4834973;28;123638;-88
2024/02/21 02:37:25;;;;;;;17.63;6.00;;;;;;;12.71;59.51;102023.75;4823669;28;125591;-88
2024/02/21 02:39:53;;;;;;;11.52;4.90;;;;;;;12.70;59.73;102008.72;4843676;28;113841;-89
2024/02/21 02:42:21;;;;;;;16.98;5.85;;;;;;;12.71;59.71;102002.47;4844147;28;113793;-90
2024/02/21 02:44:49;;;;;;;13.95;5.13;;;;;;;12.70;59.60;101992.78;4850057;28;123614;-89
2024/02/21 02:47:17;;;;;;;13.25;5.28;;;;;;;12.70;59.68;101987.47;4834809;28;124852;-89
2024/02/21 02:49:45;;;;;;;13.70;5.22;;;;;;;12.72;59.52;101981.16;4833070;28;113743;-89
2024/02/21 02:52:12;;;;;;;11.35;4.90;;;;;;;12.72;59.61;101986.47;4835852;28;113732;-89
2024/02/21 02:54:40;;;;;;;20.33;4.97;;;;;;;12.73;59.48;101979.34;4828312;28;123969;-91
2024/02/21 02:57:08;;;;;;;13.45;4.35;;;;;;;12.73;59.52;101982.00;4818122;28;123751;-90
2024/02/21 02:59:36;;;;;;;12.70;4.85;;;;;;;12.73;59.42;101987.34;4842396;28;114627;-90
2024/02/21 03:02:04;;;;;;;12.82;4.53;;;;;;;12.74;59.37;101978.44;4828040;28;114371;-89
2024/02/21 03:04:33;;;;;;;11.02;4.60;;;;;;;12.72;59.52;101982.97;4834077;28;124169;-89
2024/02/21 03:07:02;;;;;;;10.98;4.53;;;;;;;12.73;59.37;101976.69;4830146;28;123542;-88
2024/02/21 03:09:30;;;;;;;11.63;4.80;;;;;;;12.75;59.53;101980.16;4842721;28;114610;-87
2024/02/21 03:12:02;;;;;;;10.90;4.72;;;;;;;12.75;59.39;101977.50;4849139;28;114321;-89
2024/02/21 03:14:31;;;;;;;11.60;4.43;;;;;;;12.76;59.41;101971.28;4834925;28;124108;-88
2024/02/21 03:16:59;;;;;;;11.10;4.53;;;;;;;12.77;59.29;101967.69;4843114;28;123515;-89
2024/02/21 03:19:28;;;;;;;11.57;4.68;;;;;;;12.78;59.42;101969.44;4844904;28;113954;-88
2024/02/21 03:21:57;;;;;;;10.38;4.50;;;;;;;12.77;59.25;101968.56;4842630;28;114925;-89
2024/02/21 03:24:26;;;;;;;12.98;4.68;;;;;;;12.77;59.30;101967.69;4827756;28;123731;-89
2024/02/21 03:26:54;;;;;;;10.23;4.57;;;;;;;12.77;59.24;101967.69;4843993;28;124497;-89
2024/02/21 03:29:22;;;;;;;13.57;4.22;;;;;;;12.78;59.41;101964.13;4844495;28;113775;-89
2024/02/21 03:31:50;;;;;;;10.48;4.82;;;;;;;12.78;59.17;101958.81;4825297;29;113758;-87
2024/02/21 03:34:17;;;;;;;9.88;4.10;;;;;;;12.77;59.32;101957.06;4823041;28;123971;-90
2024/02/21 03:36:46;;;;;;;11.57;4.53;;;;;;;12.79;59.23;101968.50;4821873;29;123485;-90
2024/02/21 03:39:15;;;;;;;11.93;4.50;;;;;;;12.78;59.33;101953.47;4826847;28;115797;-86
2024/02/21 03:41:43;;;;;;;11.82;4.90;;;;;;;12.78;59.17;101943.72;4840679;28;113405;-86
2024/02/21 03:44:10;;;;;;;10.20;4.22;;;;;;;12.80;59.17;101946.31;4841681;28;123691;-85
2024/02/21 03:46:38;;;;;;;10.73;4.90;;;;;;;12.80;59.20;101935.69;4825753;28;123437;-84
2024/02/21 03:49:05;;;;;;;8.65;4.35;;;;;;;12.83;59.11;101922.28;4840211;28;115414;-84
2024/02/21 03:51:33;;;;;;;9.20;4.70;;;;;;;12.83;59.18;101930.28;4826862;28;114356;-85
2024/02/21 03:54:00;;;;;;;11.57;4.82;;;;;;;12.84;58.94;101921.34;4824754;28;123814;-85
2024/02/21 03:56:27;;;;;;;10.00;4.38;;;;;;;12.83;59.15;101930.28;4842461;28;124568;-85
2024/02/21 03:58:55;;;;;;;12.68;4.57;;;;;;;12.82;59.08;101917.88;4827545;28;113612;-84
2024/02/21 04:01:22;;;;;;;11.70;4.60;;;;;;;12.83;59.14;101927.59;4842523;28;114900;-85
2024/02/21 04:03:50;;;;;;;10.15;4.68;;;;;;;12.82;59.14;101917.88;4842260;28;125131;-85
2024/02/21 04:06:17;;;;;;;11.98;4.63;;;;;;;12.80;58.92;101922.41;4826804;28;123435;-85
2024/02/21 04:08:45;;;;;;;11.68;4.32;;;;;;;12.82;59.16;101917.88;4849209;28;115115;-84
2024/02/21 04:11:12;;;;;;;9.40;3.92;;;;;;;12.83;58.97;101914.31;4828356;28;113641;-85
2024/02/21 04:13:39;;;;;;;11.13;4.45;;;;;;;12.83;58.69;101919.63;4825067;28;123568;-83
2024/02/21 04:16:07;;;;;;;12.10;4.20;;;;;;;12.83;59.10;101924.94;4824634;28;123574;-85
2024/02/21 04:18:34;;;;;;;12.20;4.35;;;;;;;12.83;58.99;101924.94;4857011;28;114370;-84
2024/02/21 04:21:02;;;;;;;8.57;4.15;;;;;;;12.83;58.84;101924.94;4847218;28;114742;-86
2024/02/21 04:23:29;;;;;;;10.10;4.32;;;;;;;12.82;58.99;101923.19;4830878;28;123567;-86
2024/02/21 04:25:56;;;;;;;10.23;4.28;;;;;;;12.83;59.08;101924.94;4826896;28;123056;-84
2024/02/21 04:28:24;;;;;;;10.38;4.35;;;;;;;12.83;58.81;101927.59;4839083;28;114261;-84
2024/02/21 04:30:51;;;;;;;11.63;4.47;;;;;;;12.84;58.91;101926.66;4842203;28;113528;-85
2024/02/21 04:33:18;;;;;;;11.88;4.78;;;;;;;12.84;58.87;101921.34;4823994;28;123598;-84
2024/02/21 04:35:46;;;;;;;10.15;4.75;;;;;;;12.85;58.91;101917.78;4826254;28;123437;-84
2024/02/21 04:38:14;;;;;;;11.70;4.90;;;;;;;12.85;58.89;101908.00;4841088;28;115683;-85
2024/02/21 04:40:42;;;;;;;11.18;4.38;;;;;;;12.84;58.89;101916.03;4838124;28;114450;-85
2024/02/21 04:43:09;;;;;;;12.15;4.30;;;;;;;12.86;59.01;101914.19;4827537;28;126111;-85
2024/02/21 04:45:36;;;;;;;11.30;4.70;;;;;;;12.87;59.02;101918.59;4841305;28;125012;-83
2024/02/21 04:48:04;;;;;;;8.95;4.50;;;;;;;12.88;58.98;101912.31;4823594;29;115034;-86
2024/02/21 04:50:31;;;;;;;13.68;4.47;;;;;;;12.90;58.78;101923.78;4832565;28;113500;-84
2024/02/21 04:52:59;;;;;;;9.43;4.38;;;;;;;12.90;58.62;101910.47;4829566;28;124824;-86
2024/02/21 04:55:26;;;;;;;12.50;4.72;;;;;;;12.93;58.83;101909.50;4837313;28;124546;-85
2024/02/21 04:57:54;;;;;;;9.32;4.00;;;;;;;12.92;58.66;101919.28;4829834;28;114858;-85
2024/02/21 05:00:21;;;;;;;10.82;4.70;;;;;;;12.90;58.64;101905.16;4840988;28;113712;-87
2024/02/21 05:02:48;;;;;;;11.25;5.15;;;;;;;12.89;58.93;101903.44;4839878;28;124767;-85
2024/02/21 05:05:16;;;;;;;11.38;4.78;;;;;;;12.89;58.78;101902.59;4828219;28;125320;-85
2024/02/21 05:07:44;;;;;;;14.65;4.88;;;;;;;12.90;58.89;101907.81;4825528;28;113320;-86
2024/02/21 05:10:11;;;;;;;12.20;5.20;;;;;;;12.90;58.96;101899.84;4830518;28;114875;-85
2024/02/21 05:12:38;;;;;;;11.90;5.90;;;;;;;12.90;58.87;101894.53;4830653;28;125152;-84
2024/02/21 05:15:06;;;;;;;13.77;6.00;;;;;;;12.89;58.73;101882.16;4830306;28;124029;-85
2024/02/21 05:17:34;;;;;;;12.15;5.75;;;;;;;12.88;58.73;101891.06;4831233;28;113624;-85
2024/02/21 05:20:01;;;;;;;15.00;6.35;;;;;;;12.87;58.71;101884.03;4841026;28;113118;-85
2024/02/21 05:22:29;;;;;;;11.85;6.13;;;;;;;12.87;58.87;101876.03;4809456;29;123375;-85
2024/02/21 05:24:56;;;;;;;15.77;6.68;;;;;;;12.88;58.78;101885.75;4818434;28;123648;-85
2024/02/21 05:27:23;;;;;;;16.13;6.45;;;;;;;12.88;58.74;101874.25;4833864;28;116199;-86
2024/02/21 05:29:51;;;;;;;15.35;6.40;;;;;;;12.84;59.04;101874.34;4838846;28;114481;-84
2024/02/21 05:32:18;;;;;;;15.98;6.47;;;;;;;12.84;58.71;101868.19;4825432;28;124149;-84
2024/02/21 05:34:49;;;;;;;15.32;6.47;;;;;;;12.82;59.04;101864.72;4841100;28;123396;-84
2024/02/21 05:37:17;;;;;;;17.00;6.47;;;;;;;12.82;59.09;101862.06;4822876;29;113735;-85
2024/02/21 05:39:44;;;;;;;13.32;5.90;;;;;;;12.82;58.99;101859.41;4825711;28;115229;-85
2024/02/21 05:42:11;;;;;;;13.98;5.63;;;;;;;12.80;58.93;101853.28;4841757;28;125114;-83
2024/02/21 05:44:39;;;;;;;14.40;5.82;;;;;;;12.78;58.96;101841.84;4821787;29;123183;-85
2024/02/21 05:47:09;;;;;;;15.48;6.07;;;;;;;12.77;58.84;101845.41;4834408;28;115041;-85
2024/02/21 05:49:38;;;;;;;15.40;5.80;;;;;;;12.78;58.96;101837.38;4813779;28;113428;-84
2024/02/21 05:52:06;;;;;;;13.52;5.75;;;;;;;12.76;58.99;101835.72;4840667;28;123853;-84
2024/02/21 05:54:33;;;;;;;13.75;5.93;;;;;;;12.75;59.05;101831.31;4819900;29;125524;-84
2024/02/21 05:57:01;;;;;;;14.10;6.25;;;;;;;12.75;59.10;101836.63;4838853;28;113850;-84
2024/02/21 05:59:28;;;;;;;14.13;5.95;;;;;;;12.72;59.00;101831.44;4833135;28;114533;-84
2024/02/21 06:01:57;;;;;;;16.55;6.20;;;;;;;12.70;59.11;101817.34;4841177;28;126195;-84
2024/02/21 06:04:25;;;;;;;13.77;6.20;;;;;;;12.72;59.07;101820.81;4844421;28;122824;-85
2024/02/21 06:06:53;;;;;;;11.70;6.18;;;;;;;12.72;59.06;101811.03;4859643;28;117670;-85
2024/02/21 06:09:21;;;;;;;16.08;6.80;;;;;;;12.73;59.19;101822.53;4822422;29;113655;-84
2024/02/21 06:11:49;;;;;;;12.65;6.40;;;;;;;12.73;59.05;101822.53;4838436;28;124599;-84
2024/02/21 06:14:16;;;;;;;15.02;6.20;;;;;;;12.73;59.01;101817.22;4832900;28;123328;-83
2024/02/21 06:16:44;;;;;;;13.68;6.32;;;;;;;12.72;59.03;101804.88;4843239;28;114677;-84
2024/02/21 06:19:12;;;;;;;15.70;5.90;;;;;;;12.72;58.98;101804.88;4857215;28;115818;-85
2024/02/21 06:21:40;;;;;;;14.70;6.60;;;;;;;12.69;59.06;101799.66;4841642;28;124343;-89
2024/02/21 06:24:09;;;;;;;15.57;5.72;;;;;;;12.68;59.15;101797.91;4843488;28;123772;-88
2024/02/21 06:26:40;;;;;;;12.88;4.53;;;;;;;12.66;59.12;101801.50;4851091;28;115194;-90
2024/02/21 06:29:09;;;;;;;10.27;4.82;;;;;;;12.64;59.25;101803.34;4829754;28;113229;-89
2024/02/21 06:31:37;;;;;;;10.23;4.07;;;;;;;12.62;59.01;101794.59;4834748;28;124526;-89
2024/02/21 06:34:05;;;;;;;10.88;4.50;;;;;;;12.62;59.32;101799.91;4844707;28;124199;-88
2024/02/21 06:36:33;;;;;;;11.63;4.13;;;;;;;12.61;59.25;101795.50;4829940;28;114280;-89
2024/02/21 06:39:01;;;;;;;10.25;4.60;;;;;;;12.62;59.29;101788.38;4829210;28;113689;-89
2024/02/21 06:41:30;;;;;;;11.13;4.25;;;;;;;12.61;59.21;101787.53;4831016;28;126057;-89
2024/02/21 06:43:58;;;;;;;10.18;4.68;;;;;;;12.62;59.16;101805.22;4833191;28;126015;-90
2024/02/21 06:46:28;;;;;;;12.40;4.40;;;;;;;12.62;59.33;101794.59;4824964;29;114299;-90
2024/02/21 06:48:57;;;;;;;10.23;4.40;;;;;;;12.60;59.26;101796.44;4826650;28;113456;-88
2024/02/21 06:51:25;;;;;;;8.00;4.30;;;;;;;12.60;59.35;101801.75;4815025;28;123661;-90
2024/02/21 06:53:57;;;;;;;11.00;4.45;;;;;;;12.62;59.33;101805.22;4825381;28;123826;-90
2024/02/21 06:59:49;;;;;;;15.48;4.15;;;;;;;12.60;59.23;101793.78;4815914;29;113908;-76
2024/02/21 07:02:17;;;;;;;8.73;3.92;;;;;;;12.61;59.16;101807.94;4813357;29;124031;-78
2024/02/21 07:04:45;;;;;;;10.05;4.03;;;;;;;12.59;59.40;101800.00;4815715;29;123496;-77
2024/02/21 07:07:13;;;;;;;11.57;3.80;;;;;;;12.59;59.35;101800.00;4795581;29;115430;-78
2024/02/21 07:09:41;;;;;;;9.57;4.00;;;;;;;12.61;59.31;101792.84;4813286;29;114855;-77
2024/02/21 07:12:09;;;;;;;9.30;3.70;;;;;;;12.62;59.35;101794.59;4795029;29;124401;-78
2024/02/21 07:14:37;;;;;;;12.00;4.10;;;;;;;12.62;59.38;101794.59;4813008;29;123336;-78
2024/02/21 07:17:06;;;;;;;11.88;4.32;;;;;;;12.63;59.29;101780.34;4812100;29;113649;-77
2024/02/21 07:19:40;;;;;;;15.43;4.35;;;;;;;12.65;59.40;101789.13;4799623;29;114063;-78
2024/02/21 07:22:08;;;;;;;9.38;4.18;;;;;;;12.65;59.29;101789.13;4791365;29;124157;-77
2024/02/21 07:24:45;;;;;;;9.48;3.88;;;;;;;12.64;59.23;101787.41;4790632;29;123023;-78
2024/02/21 07:27:16;;;;;;;11.07;4.30;;;;;;;12.64;59.35;101787.41;4799133;29;113193;-77
2024/02/21 07:29:47;;;;;;;9.35;4.50;;;;;;;12.65;59.40;101783.81;4803475;29;113356;-83
2024/02/21 10:50:33;;;;;;;7.05;2.83;;;;;;;13.39;59.75;101442.97;4841139;29;98619;-83
2024/02/21 10:53:17;;;;;;;4.88;2.90;;;;;;;13.46;59.91;101434.69;4817232;29;123264;-84
2024/02/21 10:55:57;;;;;;;5.28;2.90;;;;;;;13.52;59.84;101418.44;4821147;29;123057;-84
2024/02/21 10:58:25;;;;;;;7.82;3.38;;;;;;;13.57;59.83;101417.28;4811142;29;114213;-85
2024/02/21 11:01:05;;;;;;;8.93;3.75;;;;;;;13.62;59.69;101387.78;4819536;29;114002;-86
2024/02/21 11:03:35;;;;;;;7.30;3.13;;;;;;;13.68;59.70;101379.50;4815633;29;124357;-84
2024/02/21 11:06:08;;;;;;;9.45;3.45;;;;;;;13.73;59.45;101369.50;4807277;29;124161;-84
2024/02/21 11:08:35;;;;;;;7.70;3.13;;;;;;;13.77;59.32;101364.88;4818982;29;115606;-82
2024/02/21 11:11:04;;;;;;;6.32;2.97;;;;;;;13.79;59.48;101358.53;4820782;29;114195;-83
2024/02/21 11:13:36;;;;;;;7.35;3.13;;;;;;;13.83;59.35;101360.09;4819214;29;123856;-81
2024/02/21 11:19:23;;;;;;;7.32;3.13;;;;;;;13.94;59.32;101372.03;4825821;29;113387;-82
2024/02/21 11:21:54;;;;;;;9.82;3.15;;;;;;;13.96;59.04;101375.47;4803751;29;113669;-83
2024/02/21 11:24:34;;;;;;;7.05;2.97;;;;;;;13.98;59.23;101378.91;4826836;29;123530;-82
2024/02/21 11:27:14;;;;;;;5.30;2.53;;;;;;;14.01;59.02;101373.41;4818648;29;123427;-82
2024/02/21 11:29:55;;;;;;;7.78;2.83;;;;;;;14.04;59.03;101375.91;4819905;29;113322;-85
2024/02/21 11:37:47;;;;;;;5.78;2.45;;;;;;;14.05;58.77;101342.16;4818852;29;124439;-81
2024/02/21 11:40:46;;;;;;;6.85;2.70;;;;;;;14.09;58.98;101333.94;4814040;29;125029;-81
2024/02/21 11:43:15;;;;;;;6.00;2.80;;;;;;;14.09;58.77;101325.94;4825890;23;113965;-93
2024/02/21 11:45:44;;;;;;;4.88;2.55;;;;;;;14.11;58.82;101326.72;4835045;29;113841;-91
2024/02/21 11:48:12;;;;;;;8.15;2.60;;;;;;;14.13;58.67;101319.50;4816124;29;123824;-91
2024/02/21 11:50:39;;;;;;;5.22;2.65;;;;;;;14.17;58.60;101325.53;4843306;29;122835;-90
2024/02/21 11:53:07;;;;;;;7.13;2.88;;;;;;;14.17;58.44;101310.41;4810973;29;114464;-87
2024/02/21 11:55:35;;;;;;;7.68;3.00;;;;;;;14.18;58.25;101312.16;4830914;29;116185;-92
2024/02/21 11:58:03;;;;;;;8.73;2.75;;;;;;;14.20;58.55;101294.28;4826745;29;124915;-86
2024/02/21 12:00:30;;;;;;;5.22;2.55;;;;;;;14.25;58.43;101279.84;4815516;29;122399;-91
2024/02/21 12:03:01;;;;;;;8.55;2.70;;;;;;;14.29;58.43;101276.06;4828247;29;113498;-89
2024/02/21 12:05:30;;;;;;;5.43;2.60;;;;;;;14.36;58.44;101278.31;4818713;29;114793;-87
2024/02/21 12:07:58;;;;;;;6.25;2.42;;;;;;;14.45;58.42;101282.31;4827447;29;123236;-88
2024/02/21 12:10:29;;;;;;;9.85;2.70;;;;;;;14.51;58.24;101281.09;4810716;29;125865;-89
2024/02/21 12:13:10;;;;;;;5.80;2.95;;;;;;;14.53;58.16;101261.41;4819968;29;115848;-87
2024/02/21 12:15:40;;;;;;;9.35;2.60;;;;;;;14.56;58.17;101253.25;4807119;29;113561;-87
2024/02/21 12:18:10;;;;;;;6.25;2.78;;;;;;;14.57;57.94;101239.00;4823905;29;123639;-88
2024/02/21 12:20:37;;;;;;;6.55;2.78;;;;;;;14.60;58.02;101228.19;4808100;29;125021;-86
2024/02/21 12:23:09;;;;;;;4.47;2.20;;;;;;;14.63;58.12;101200.47;4822800;29;112945;-88
2024/02/21 12:25:36;;;;;;;8.65;3.17;;;;;;;14.70;58.21;101201.00;4820275;29;112352;-89
2024/02/21 12:28:04;;;;;;;7.05;2.42;;;;;;;14.76;57.95;101195.31;4819976;29;125226;-87
2024/02/21 12:30:33;;;;;;;9.65;2.75;;;;;;;14.83;58.19;101186.03;4837595;29;124807;-88
2024/02/21 12:33:01;;;;;;;6.05;2.83;;;;;;;14.88;58.02;101178.63;4803703;29;112645;-88
2024/02/21 12:35:28;;;;;;;6.50;2.78;;;;;;;14.94;57.88;101164.91;4808027;29;113916;-88
2024/02/21 12:37:56;;;;;;;9.88;2.38;;;;;;;15.02;57.73;101163.63;4821877;29;124332;-87
2024/02/21 12:40:24;;;;;;;7.35;2.50;;;;;;;15.06;57.73;101157.16;4807098;29;123019;-88
2024/02/21 12:42:52;;;;;;;7.50;2.67;;;;;;;15.11;57.48;101157.75;4811292;29;114576;-87
2024/02/21 12:45:19;;;;;;;4.88;2.30;;;;;;;15.14;57.87;101142.41;4820855;29;114946;-87
2024/02/21 12:47:47;;;;;;;4.93;2.50;;;;;;;15.19;57.41;101134.13;4801318;29;122515;-87
2024/02/21 12:50:15;;;;;;;6.13;2.40;;;;;;;15.23;57.33;101119.66;4814348;29;123895;-87
2024/02/21 12:52:42;;;;;;;5.85;2.58;;;;;;;15.26;57.47;101119.47;4807770;29;116667;-89
2024/02/21 12:55:10;;;;;;;6.30;2.28;;;;;;;15.29;57.18;101103.25;4810146;29;115969;-87
2024/02/21 12:57:38;;;;;;;6.93;2.33;;;;;;;15.32;57.08;101097.75;4814933;29;125170;-87
2024/02/21 13:00:08;;;;;;;7.85;2.55;;;;;;;15.35;57.19;101096.69;4815050;29;122876;-88
2024/02/21 13:02:38;;;;;;;8.18;2.65;;;;;;;15.40;57.34;101083.06;4801761;29;115157;-86
2024/02/21 13:05:08;;;;;;;5.75;2.30;;;;;;;15.43;56.99;101057.06;4819875;29;112753;-87
2024/02/21 13:07:36;;;;;;;5.22;2.50;;;;;;;15.47;56.90;101057.72;4807534;29;125971;-87
2024/02/21 13:10:05;;;;;;;7.45;2.67;;;;;;;15.50;56.94;101046.84;4817175;29;124753;-87
2024/02/21 13:12:32;;;;;;;8.85;2.30;;;;;;;15.51;56.67;101032.56;4820336;29;115446;-87
2024/02/21 13:14:59;;;;;;;5.45;2.20;;;;;;;15.51;56.57;101037.91;4813378;29;112908;-87
2024/02/21 13:17:30;;;;;;;6.38;2.20;;;;;;;15.49;56.41;101035.31;4808159;29;123836;-87
2024/02/21 13:19:58;;;;;;;5.07;2.30;;;;;;;15.50;56.30;101041.50;4807606;29;122708;-87
2024/02/21 13:22:26;;;;;;;7.13;2.70;;;;;;;15.50;56.54;101036.16;4808160;29;113948;-89
2024/02/21 13:24:54;;;;;;;6.38;2.85;;;;;;;15.50;56.41;101025.50;4822813;29;113405;-89
2024/02/21 13:27:24;;;;;;;5.93;2.35;;;;;;;15.52;56.40;101018.25;4803190;29;123731;-88
2024/02/21 13:29:52;;;;;;;5.78;2.50;;;;;;;15.51;56.35;101012.06;4818774;29;123034;-87
2024/02/21 13:32:20;;;;;;;7.30;2.50;;;;;;;15.52;56.23;101002.22;4817136;29;114508;-92
2024/02/21 13:34:48;;;;;;;6.72;2.40;;;;;;;15.52;56.29;101007.56;4814620;29;113705;-87
2024/02/21 13:37:16;;;;;;;5.75;2.22;;;;;;;15.52;56.22;101010.22;4826432;29;124183;-89
2024/02/21 13:39:44;;;;;;;6.80;2.47;;;;;;;15.52;55.73;100999.56;4830076;29;122902;-91
2024/02/21 13:42:12;;;;;;;5.47;2.40;;;;;;;15.54;56.05;100995.00;4828426;29;114679;-88
2024/02/21 13:44:40;;;;;;;6.75;2.55;;;;;;;15.52;56.19;100983.53;4810656;29;114628;-89
2024/02/21 13:47:08;;;;;;;5.43;2.38;;;;;;;15.52;56.07;100983.53;4818915;29;124931;-87
2024/02/21 13:49:35;;;;;;;4.82;2.10;;;;;;;15.52;55.80;100975.53;4806225;29;124888;-89
2024/02/21 13:52:03;;;;;;;6.95;2.20;;;;;;;15.49;55.91;100970.41;4823673;29;116619;-88
2024/02/21 13:54:31;;;;;;;5.28;2.17;;;;;;;15.49;55.84;100981.09;4789623;29;114881;-87
2024/02/21 13:56:58;;;;;;;5.95;2.10;;;;;;;15.46;55.69;100974.09;4818322;29;125521;-87
2024/02/21 13:59:26;;;;;;;6.82;1.88;;;;;;;15.46;55.91;100965.25;4807375;29;122985;-89
2024/02/21 14:01:54;;;;;;;6.10;2.10;;;;;;;15.43;55.48;100954.78;4797669;29;115186;-88
2024/02/21 14:04:21;;;;;;;3.50;1.70;;;;;;;15.40;55.44;100949.63;4825304;29;114610;-88
2024/02/21 14:06:49;;;;;;;5.68;1.92;;;;;;;15.35;55.40;100945.44;4821963;29;123908;-90
2024/02/21 14:09:16;;;;;;;4.93;2.03;;;;;;;15.32;55.32;100947.44;4825161;29;125690;-89
2024/02/21 14:11:45;;;;;;;3.97;1.80;;;;;;;15.25;55.12;100925.63;4814742;29;113379;-87
2024/02/21 14:14:15;;;;;;;3.47;1.80;;;;;;;15.23;55.26;100911.53;4821829;29;113377;-90
2024/02/21 14:16:42;;;;;;;4.18;1.75;;;;;;;15.21;55.22;100908.09;4834261;29;122458;-89
2024/02/21 14:19:11;;;;;;;5.05;1.80;;;;;;;15.17;55.09;100906.59;4831376;29;122384;-87
2024/02/21 14:21:39;;;;;;;3.80;1.80;;;;;;;15.13;55.17;100894.41;4820585;29;112578;-89
2024/02/21 14:24:07;;;;;;;4.13;1.80;;;;;;;15.10;55.15;100890.09;4825802;29;113363;-88
2024/02/21 14:26:35;;;;;;;8.40;2.35;;;;;;;15.07;55.05;100884.09;4820906;29;124479;-88
2024/02/21 14:29:03;;;;;;;5.97;2.00;;;;;;;15.03;55.02;100877.25;4821999;29;125571;-87
2024/02/21 14:31:34;;;;;;;4.25;1.73;;;;;;;14.97;55.11;100874.03;4821711;29;114306;-87
2024/02/21 14:34:02;;;;;;;3.88;1.85;;;;;;;14.94;55.12;100863.56;4822155;29;113020;-87
2024/02/21 14:36:30;;;;;;;3.20;1.70;;;;;;;14.92;55.15;100867.28;4823782;29;125165;-85
2024/02/21 14:38:57;;;;;;;4.50;2.08;;;;;;;14.87;55.11;100851.56;4817049;29;124763;-87
2024/02/21 14:41:25;;;;;;;6.32;2.00;;;;;;;14.86;55.35;100847.19;4802413;29;115330;-88
2024/02/21 14:43:52;;;;;;;4.57;2.10;;;;;;;14.86;55.25;100839.19;4824646;29;113269;-86
2024/02/21 14:46:20;;;;;;;4.93;1.88;;;;;;;14.86;55.17;100831.19;4810640;29;123774;-88
2024/02/21 14:48:47;;;;;;;5.57;1.90;;;;;;;14.85;55.19;100826.78;4824985;29;123274;-87